createdAt,value
2023-01-20T00:00:17.741Z,98729.22
2023-01-20T00:02:44.481Z,98731.31
2023-01-20T00:05:11.058Z,98732.97
2023-01-20T00:07:37.949Z,98734.03
2023-01-20T00:10:04.857Z,98740.31
2023-01-20T00:12:31.914Z,98739.41
2023-01-20T00:14:58.560Z,98749.19
2023-01-20T00:17:25.109Z,98741.19
2023-01-20T00:19:51.504Z,98746.66
2023-01-20T00:22:18.144Z,98755.69
2023-01-20T00:24:44.597Z,98747.97
2023-01-20T00:27:12.207Z,98748.81
2023-01-20T00:29:38.720Z,98755.09
2023-01-20T00:32:05.379Z,98753.50
2023-01-20T00:34:31.829Z,98751.13
2023-01-20T00:36:58.380Z,98753.13
2023-01-20T00:39:24.742Z,98755.66
2023-01-20T00:41:51.265Z,98758.31
2023-01-20T00:44:17.653Z,98764.63
2023-01-20T00:46:44.264Z,98759.94
2023-01-20T00:49:11.282Z,98762.66
2023-01-20T00:51:37.807Z,98762.66
2023-01-20T00:54:04.488Z,98768.84
2023-01-20T00:56:31.122Z,98761.69
2023-01-20T00:58:57.718Z,98764.25
2023-01-20T01:01:24.460Z,98772.81
2023-01-20T01:03:54.372Z,98772.91
2023-01-20T01:06:21.152Z,98770.09
2023-01-20T01:08:47.570Z,98773.00
2023-01-20T01:11:14.491Z,98776.84
2023-01-20T01:13:41.418Z,98784.84
2023-01-20T01:16:14.873Z,98780.91
2023-01-20T01:18:42.324Z,98789.88
2023-01-20T01:21:11.065Z,98786.19
2023-01-20T01:23:37.663Z,98793.41
2023-01-20T01:26:04.410Z,98786.66
2023-01-20T01:28:31.503Z,98803.28
2023-01-20T01:31:02.770Z,98804.66
2023-01-20T01:33:31.628Z,98807.50
2023-01-20T01:35:59.923Z,98804.84
2023-01-20T01:38:27.817Z,98802.22
2023-01-20T01:40:55.183Z,98808.16
2023-01-20T01:43:31.197Z,98820.38
2023-01-20T01:45:58.132Z,98828.22
2023-01-20T01:48:36.833Z,98820.59
2023-01-20T01:51:08.933Z,98818.72
2023-01-20T01:53:53.786Z,98822.09
2023-01-20T01:56:22.901Z,98827.88
2023-01-20T01:58:54.006Z,98828.97
2023-01-20T02:01:20.877Z,98820.38
2023-01-20T02:04:03.324Z,98823.69
2023-01-20T02:06:33.622Z,98820.22
2023-01-20T02:09:04.913Z,98822.00
2023-01-20T02:11:45.240Z,98826.53
2023-01-20T02:14:12.014Z,98831.03
2023-01-20T02:16:41.651Z,98821.59
2023-01-20T02:19:35.822Z,98825.09
2023-01-20T02:22:37.783Z,98827.91
2023-01-20T02:25:33.520Z,98829.09
2023-01-20T02:27:59.867Z,98833.53
2023-01-20T02:30:54.018Z,98839.75
2023-01-20T02:33:30.344Z,98839.06
2023-01-20T02:36:27.044Z,98838.16
2023-01-20T02:39:03.019Z,98843.84
2023-01-20T02:41:49.001Z,98842.03
2023-01-20T02:44:30.820Z,98840.41
2023-01-20T02:47:29.517Z,98853.84
2023-01-20T02:50:12.442Z,98850.94
2023-01-20T02:52:44.268Z,98849.50
2023-01-20T02:55:17.135Z,98853.09
2023-01-20T02:57:51.518Z,98846.28
2023-01-20T03:00:25.592Z,98857.69
2023-01-20T03:02:55.158Z,98861.44
2023-01-20T03:05:27.444Z,98865.03
2023-01-20T03:07:55.543Z,98865.94
2023-01-20T03:10:26.500Z,98867.81
2023-01-20T03:13:41.981Z,98869.63
2023-01-20T03:16:28.371Z,98876.25
2023-01-20T03:18:55.397Z,98872.47
2023-01-20T03:21:21.948Z,98878.72
2023-01-20T03:23:54.378Z,98878.06
2023-01-20T03:26:22.962Z,98882.84
2023-01-20T03:28:49.930Z,98883.03
2023-01-20T03:31:19.043Z,98885.31
2023-01-20T03:33:47.723Z,98887.00
2023-01-20T03:36:16.183Z,98880.81
2023-01-20T03:38:44.929Z,98884.94
2023-01-20T03:41:17.681Z,98881.47
2023-01-20T03:44:11.623Z,98889.38
2023-01-20T03:46:47.153Z,98891.00
2023-01-20T03:49:29.588Z,98893.44
2023-01-20T03:52:08.876Z,98895.25
2023-01-20T03:54:46.667Z,98902.06
2023-01-20T03:57:18.316Z,98911.66
2023-01-20T03:59:49.184Z,98910.16
2023-01-20T04:02:15.666Z,98915.34
2023-01-20T04:04:45.335Z,98910.25
2023-01-20T04:07:19.132Z,98910.25
2023-01-20T04:09:50.122Z,98910.31
2023-01-20T04:12:16.752Z,98912.72
2023-01-20T04:14:43.196Z,98915.53
2023-01-20T04:17:10.107Z,98919.84
2023-01-20T04:19:36.669Z,98919.16
2023-01-20T04:22:09.705Z,98923.44
2023-01-20T04:24:58.183Z,98921.13
2023-01-20T04:27:24.613Z,98922.25
2023-01-20T04:29:51.103Z,98919.63
2023-01-20T04:32:17.600Z,98916.81
2023-01-20T04:34:44.051Z,98924.72
2023-01-20T04:37:10.601Z,98925.66
2023-01-20T04:39:37.060Z,98931.84
2023-01-20T04:42:03.973Z,98928.28
2023-01-20T04:44:30.358Z,98931.69
2023-01-20T04:46:59.967Z,98932.81
2023-01-20T04:49:26.476Z,98933.91
2023-01-20T04:51:53.047Z,98933.56
2023-01-20T04:54:19.538Z,98932.66
2023-01-20T04:56:48.809Z,98928.28
2023-01-20T04:59:15.205Z,98935.28
2023-01-20T05:01:41.833Z,98932.56
2023-01-20T05:04:08.355Z,98936.03
2023-01-20T05:06:35.420Z,98944.97
2023-01-20T05:09:01.973Z,98943.19
2023-01-20T05:11:28.458Z,98940.72
2023-01-20T05:13:54.930Z,98939.72
2023-01-20T05:16:24.965Z,98947.53
2023-01-20T05:18:51.384Z,98948.56
2023-01-20T05:21:17.754Z,98954.03
2023-01-20T05:23:44.305Z,98957.59
2023-01-20T05:26:11.383Z,98957.75
2023-01-20T05:28:37.997Z,98961.34
2023-01-20T05:31:04.730Z,98961.16
2023-01-20T05:33:31.337Z,98959.22
2023-01-20T05:35:57.816Z,98965.25
2023-01-20T05:38:24.444Z,98959.72
2023-01-20T05:40:50.875Z,98959.88
2023-01-20T05:43:17.400Z,98967.41
2023-01-20T05:45:43.870Z,98964.69
2023-01-20T05:48:10.551Z,98959.25
2023-01-20T05:50:37.067Z,98966.03
2023-01-20T05:53:03.834Z,98969.78
2023-01-20T05:55:30.274Z,98968.38
2023-01-20T05:57:56.786Z,98965.53
2023-01-20T06:00:23.449Z,98971.53
2023-01-20T06:02:49.993Z,98969.13
2023-01-20T06:05:16.942Z,98978.75
2023-01-20T06:07:43.669Z,98974.47
2023-01-20T06:10:10.818Z,98985.34
2023-01-20T06:12:37.292Z,98991.75
2023-01-20T06:15:04.809Z,98994.78
2023-01-20T06:17:31.243Z,98996.25
2023-01-20T06:19:58.490Z,98990.50
2023-01-20T06:22:25.997Z,98999.34
2023-01-20T06:24:52.420Z,98994.16
2023-01-20T06:27:19.684Z,98996.78
2023-01-20T06:29:46.304Z,99002.38
2023-01-20T06:32:12.781Z,99008.41
2023-01-20T06:34:39.389Z,99007.31
2023-01-20T06:37:07.110Z,99008.00
2023-01-20T06:39:33.556Z,99007.16
2023-01-20T06:42:00.592Z,99007.84
2023-01-20T06:44:27.439Z,99017.06
2023-01-20T06:46:54.240Z,99017.31
2023-01-20T06:49:20.875Z,99003.28
2023-01-20T06:51:48.710Z,99013.34
2023-01-20T06:54:16.355Z,99018.28
2023-01-20T06:56:42.837Z,99030.22
2023-01-20T06:59:11.189Z,99027.50
2023-01-20T07:01:38.208Z,99033.81
2023-01-20T07:04:04.850Z,99029.56
2023-01-20T07:06:34.761Z,99032.66
2023-01-20T07:09:02.041Z,99038.16
2023-01-20T07:11:31.283Z,99037.47
2023-01-20T07:13:59.355Z,99035.44
2023-01-20T07:16:25.867Z,99044.97
2023-01-20T07:18:53.629Z,99049.56
2023-01-20T07:21:20.702Z,99054.94
2023-01-20T07:23:47.948Z,99054.78
2023-01-20T07:26:20.581Z,99057.75
2023-01-20T07:28:48.039Z,99059.88
2023-01-20T07:31:19.307Z,99060.84
2023-01-20T07:33:46.732Z,99071.25
2023-01-20T07:36:14.415Z,99067.69
2023-01-20T07:38:41.067Z,99065.94
2023-01-20T07:41:16.747Z,99075.78
2023-01-20T07:43:47.212Z,99069.19
2023-01-20T07:46:14.255Z,99079.13
2023-01-20T07:48:40.834Z,99073.44
2023-01-20T07:51:10.759Z,99078.81
2023-01-20T07:53:39.899Z,99078.88
2023-01-20T07:56:10.022Z,99088.59
2023-01-20T07:58:36.625Z,99090.94
2023-01-20T08:01:11.347Z,99093.66
2023-01-20T08:03:37.959Z,99096.91
2023-01-20T08:06:05.978Z,99098.78
2023-01-20T08:08:33.045Z,99101.41
2023-01-20T08:11:01.568Z,99098.94
2023-01-20T08:13:32.010Z,99109.78
2023-01-20T08:16:08.126Z,99114.22
2023-01-20T08:18:35.663Z,99108.06
2023-01-20T08:21:08.165Z,99105.97
2023-01-20T08:23:35.879Z,99110.97
2023-01-20T08:26:05.760Z,99106.47
2023-01-20T08:28:36.913Z,99107.59
2023-01-20T08:31:10.313Z,99112.59
2023-01-20T08:33:37.690Z,99120.13
2023-01-20T08:36:06.942Z,99127.69
2023-01-20T08:38:33.717Z,99125.94
2023-01-20T08:41:00.206Z,99125.66
2023-01-20T08:43:26.916Z,99135.44
2023-01-20T08:46:08.366Z,99129.94
2023-01-20T08:48:36.206Z,99127.44
2023-01-20T08:51:12.154Z,99130.16
2023-01-20T08:53:38.691Z,99129.09
2023-01-20T08:56:05.611Z,99135.13
2023-01-20T08:58:32.387Z,99131.72
2023-01-20T09:00:59.786Z,99137.00
2023-01-20T09:03:26.500Z,99128.84
2023-01-20T09:05:53.287Z,99138.38
2023-01-20T09:08:20.800Z,99135.56
2023-01-20T09:10:47.549Z,99136.25
2023-01-20T09:13:14.608Z,99135.81
2023-01-20T09:15:41.211Z,99133.09
2023-01-20T09:18:07.654Z,99147.09
2023-01-20T09:20:34.341Z,99144.84
2023-01-20T09:23:02.737Z,99141.97
2023-01-20T09:25:29.203Z,99137.50
2023-01-20T09:27:55.829Z,99144.84
2023-01-20T09:30:22.246Z,99148.09
2023-01-20T09:32:53.041Z,99149.72
2023-01-20T09:35:19.423Z,99141.81
2023-01-20T09:38:04.638Z,99144.75
2023-01-20T09:41:10.736Z,99145.50
2023-01-20T09:43:56.861Z,99161.19
2023-01-20T09:46:44.716Z,99153.09
2023-01-20T09:49:36.443Z,99162.22
2023-01-20T09:53:03.263Z,99143.22
2023-01-20T09:55:52.130Z,99156.41
2023-01-20T09:58:36.995Z,99148.72
2023-01-20T10:01:38.783Z,99145.66
2023-01-20T10:04:22.710Z,99155.31
2023-01-20T10:06:59.530Z,99158.53
2023-01-20T10:09:45.952Z,99151.56
2023-01-20T10:12:21.985Z,99159.41
2023-01-20T10:15:13.366Z,99159.19
2023-01-20T10:17:55.211Z,99164.97
2023-01-20T10:20:31.920Z,99158.69
2023-01-20T10:23:12.280Z,99161.75
2023-01-20T10:25:47.428Z,99157.03
2023-01-20T10:28:34.899Z,99162.75
2023-01-20T10:31:04.310Z,99152.91
2023-01-20T10:33:38.698Z,99158.00
2023-01-20T10:36:13.747Z,99151.59
2023-01-20T10:38:43.236Z,99150.97
2023-01-20T10:41:19.590Z,99153.06
2023-01-20T10:43:50.134Z,99139.09
2023-01-20T10:46:31.293Z,99145.88
2023-01-20T10:49:35.214Z,99137.13
2023-01-20T10:52:23.347Z,99147.19
2023-01-20T10:54:59.210Z,99138.78
2023-01-20T10:57:26.176Z,99139.25
2023-01-20T11:00:07.466Z,99141.16
2023-01-20T11:02:37.842Z,99142.66
2023-01-20T11:05:26.119Z,99153.72
2023-01-20T11:07:54.416Z,99149.31
2023-01-20T11:10:25.075Z,99155.88
2023-01-20T11:12:54.924Z,99165.53
2023-01-20T11:15:26.208Z,99158.53
2023-01-20T11:18:14.436Z,99152.47
2023-01-20T11:20:52.748Z,99159.66
2023-01-20T11:23:23.843Z,99155.22
2023-01-20T11:25:56.600Z,99157.34
2023-01-20T11:28:24.460Z,99153.16
2023-01-20T11:30:53.789Z,99156.66
2023-01-20T11:33:22.208Z,99156.97
2023-01-20T11:36:00.080Z,99162.06
2023-01-20T11:38:48.342Z,99161.41
2023-01-20T11:41:26.678Z,99157.44
2023-01-20T11:43:58.650Z,99146.03
2023-01-20T11:46:30.045Z,99146.69
2023-01-20T11:49:26.158Z,99139.75
2023-01-20T11:51:57.168Z,99142.97
2023-01-20T11:54:26.981Z,99141.41
2023-01-20T11:56:57.120Z,99149.00
2023-01-20T11:59:31.985Z,99141.81
2023-01-20T12:02:04.534Z,99146.38
2023-01-20T12:04:53.699Z,99139.50
2023-01-20T12:07:52.438Z,99139.31
2023-01-20T12:10:27.067Z,99134.41
2023-01-20T12:13:13.731Z,99141.22
2023-01-20T12:15:52.996Z,99134.97
2023-01-20T12:19:01.691Z,99142.72
2023-01-20T12:21:37.238Z,99145.97
2023-01-20T12:24:20.821Z,99140.66
2023-01-20T12:26:48.039Z,99135.94
2023-01-20T12:29:22.607Z,99139.16
2023-01-20T12:31:49.568Z,99133.47
2023-01-20T12:34:23.184Z,99130.09
2023-01-20T12:37:26.934Z,99126.88
2023-01-20T12:39:59.215Z,99127.34
2023-01-20T12:42:41.337Z,99131.00
2023-01-20T12:45:23.863Z,99129.28
2023-01-20T12:48:34.971Z,99130.25
2023-01-20T12:51:44.771Z,99133.47
2023-01-20T12:54:48.315Z,99138.00
2023-01-20T12:57:46.551Z,99136.59
2023-01-20T13:00:47.103Z,99145.56
2023-01-20T13:03:26.101Z,99143.66
2023-01-20T13:06:13.672Z,99142.06
2023-01-20T13:09:23.733Z,99145.56
2023-01-20T13:11:59.251Z,99140.75
2023-01-20T13:14:41.130Z,99146.53
2023-01-20T13:17:28.181Z,99157.63
2023-01-20T13:19:58.995Z,99147.44
2023-01-20T13:22:26.173Z,99162.09
2023-01-20T13:24:55.484Z,99157.88
2023-01-20T13:27:29.088Z,99162.97
2023-01-20T13:29:58.286Z,99160.50
2023-01-20T13:32:43.124Z,99161.66
2023-01-20T13:35:15.948Z,99169.41
2023-01-20T13:37:49.271Z,99159.94
2023-01-20T13:40:38.471Z,99165.06
2023-01-20T13:43:25.315Z,99171.19
2023-01-20T13:46:07.193Z,99172.66
2023-01-20T13:48:36.115Z,99174.47
2023-01-20T13:51:21.349Z,99174.78
2023-01-20T13:53:47.923Z,99176.47
2023-01-20T13:56:29.120Z,99176.72
2023-01-20T13:58:58.173Z,99188.91
2023-01-20T14:01:26.247Z,99194.31
2023-01-20T14:04:03.768Z,99197.69
2023-01-20T14:06:32.986Z,99192.09
2023-01-20T14:09:01.388Z,99206.09
2023-01-20T14:11:29.486Z,99203.72
2023-01-20T14:13:57.013Z,99206.31
2023-01-20T14:16:29.030Z,99206.00
2023-01-20T14:18:59.083Z,99199.31
2023-01-20T14:21:28.067Z,99212.28
2023-01-20T14:23:54.523Z,99216.97
2023-01-20T14:26:22.757Z,99222.34
2023-01-20T14:28:52.533Z,99211.72
2023-01-20T14:31:22.988Z,99223.50
2023-01-20T14:34:03.671Z,99224.41
2023-01-20T14:36:32.954Z,99228.78
2023-01-20T14:39:04.064Z,99230.56
2023-01-20T14:41:46.940Z,99237.47
2023-01-20T14:44:24.222Z,99241.16
2023-01-20T14:46:54.037Z,99235.66
2023-01-20T14:49:22.867Z,99243.91
2023-01-20T14:51:50.519Z,99249.13
2023-01-20T14:54:44.235Z,99246.75
2023-01-20T14:57:16.748Z,99251.69
2023-01-20T14:59:44.100Z,99255.19
2023-01-20T15:02:30.568Z,99258.00
2023-01-20T15:04:57.160Z,99261.72
2023-01-20T15:07:25.366Z,99257.13
2023-01-20T15:10:08.646Z,99261.56
2023-01-20T15:12:39.561Z,99252.34
2023-01-20T15:15:06.282Z,99254.63
2023-01-20T15:17:33.225Z,99260.03
2023-01-20T15:19:59.900Z,99258.31
2023-01-20T15:22:27.612Z,99266.16
2023-01-20T15:24:54.631Z,99267.66
2023-01-20T15:27:23.963Z,99268.50
2023-01-20T15:30:18.700Z,99274.72
2023-01-20T15:32:47.459Z,99278.94
2023-01-20T15:35:16.247Z,99287.84
2023-01-20T15:37:44.091Z,99287.25
2023-01-20T15:40:19.298Z,99288.47
2023-01-20T15:42:47.251Z,99295.06
2023-01-20T15:45:14.987Z,99299.44
2023-01-20T15:47:42.550Z,99298.75
2023-01-20T15:50:15.190Z,99306.34
2023-01-20T15:52:42.135Z,99310.72
2023-01-20T15:55:13.019Z,99313.19
2023-01-20T15:57:40.273Z,99313.34
2023-01-20T16:00:07.763Z,99315.66
2023-01-20T16:02:34.232Z,99324.34
2023-01-20T16:05:00.793Z,99323.19
2023-01-20T16:07:27.926Z,99330.25
2023-01-20T16:09:54.389Z,99337.16
2023-01-20T16:12:20.962Z,99330.16
2023-01-20T16:14:47.585Z,99335.22
2023-01-20T16:17:16.443Z,99337.38
2023-01-20T16:19:42.960Z,99335.66
2023-01-20T16:22:10.489Z,99339.19
2023-01-20T16:24:37.924Z,99347.16
2023-01-20T16:27:19.786Z,99357.28
2023-01-20T16:29:46.724Z,99348.97
2023-01-20T16:32:16.695Z,99356.31
2023-01-20T16:34:44.177Z,99348.22
2023-01-20T16:37:14.224Z,99356.59
2023-01-20T16:39:40.671Z,99367.84
2023-01-20T16:42:13.269Z,99367.06
2023-01-20T16:44:39.826Z,99367.66
2023-01-20T16:47:08.189Z,99366.69
2023-01-20T16:49:34.568Z,99362.34
2023-01-20T16:52:01.202Z,99370.56
2023-01-20T16:54:27.640Z,99373.25
2023-01-20T16:56:54.224Z,99381.97
2023-01-20T16:59:20.717Z,99379.78
2023-01-20T17:01:48.864Z,99379.91
2023-01-20T17:04:15.535Z,99386.47
2023-01-20T17:06:43.068Z,99388.47
2023-01-20T17:09:09.992Z,99394.91
2023-01-20T17:11:42.867Z,99388.91
2023-01-20T17:14:11.092Z,99393.19
2023-01-20T17:16:38.711Z,99395.16
2023-01-20T17:19:05.857Z,99401.53
2023-01-20T17:21:34.459Z,99405.09
2023-01-20T17:24:03.353Z,99405.00
2023-01-20T17:26:30.591Z,99405.88
2023-01-20T17:29:00.173Z,99415.78
2023-01-20T17:31:28.102Z,99417.84
2023-01-20T17:33:54.558Z,99421.38
2023-01-20T17:36:21.089Z,99421.31
2023-01-20T17:38:47.502Z,99426.53
2023-01-20T17:41:14.794Z,99422.81
2023-01-20T17:43:48.144Z,99429.81
2023-01-20T17:46:20.547Z,99428.72
2023-01-20T17:48:47.267Z,99427.09
2023-01-20T17:51:22.809Z,99426.25
2023-01-20T17:53:50.339Z,99434.22
2023-01-20T17:56:19.263Z,99437.56
2023-01-20T17:58:46.777Z,99449.31
2023-01-20T18:01:24.255Z,99442.91
2023-01-20T18:03:53.160Z,99447.97
2023-01-20T18:06:21.839Z,99447.03
2023-01-20T18:08:53.569Z,99449.47
2023-01-20T18:11:22.792Z,99454.53
2023-01-20T18:13:51.696Z,99455.19
2023-01-20T18:16:20.518Z,99469.66
2023-01-20T18:18:48.153Z,99468.13
2023-01-20T18:21:24.940Z,99482.19
2023-01-20T18:23:52.003Z,99475.13
2023-01-20T18:26:21.499Z,99478.63
2023-01-20T18:28:48.686Z,99479.75
2023-01-20T18:31:20.234Z,99492.50
2023-01-20T18:33:49.570Z,99493.84
2023-01-20T18:36:25.375Z,99490.50
2023-01-20T18:39:01.168Z,99487.41
2023-01-20T18:41:29.768Z,99493.59
2023-01-20T18:43:57.928Z,99497.38
2023-01-20T18:46:25.819Z,99494.22
2023-01-20T18:48:55.255Z,99492.50
2023-01-20T18:51:27.613Z,99506.63
2023-01-20T18:54:00.372Z,99505.56
2023-01-20T18:56:28.366Z,99506.13
2023-01-20T18:58:55.979Z,99505.75
2023-01-20T19:01:26.009Z,99513.13
2023-01-20T19:03:53.445Z,99515.59
2023-01-20T19:06:22.560Z,99516.31
2023-01-20T19:08:49.961Z,99525.03
2023-01-20T19:11:20.697Z,99525.75
2023-01-20T19:13:51.185Z,99532.00
2023-01-20T19:16:19.077Z,99528.44
2023-01-20T19:18:51.293Z,99527.00
2023-01-20T19:21:17.771Z,99526.38
2023-01-20T19:23:48.866Z,99530.97
2023-01-20T19:26:18.566Z,99532.31
2023-01-20T19:28:46.687Z,99528.03
2023-01-20T19:31:18.341Z,99535.22
2023-01-20T19:33:46.080Z,99557.56
2023-01-20T19:36:16.445Z,99548.28
2023-01-20T19:38:43.114Z,99552.03
2023-01-20T19:41:19.514Z,99538.69
2023-01-20T19:43:46.554Z,99545.28
2023-01-20T19:46:18.568Z,99541.91
2023-01-20T19:48:45.181Z,99554.69
2023-01-20T19:51:15.263Z,99559.34
2023-01-20T19:53:43.415Z,99559.63
2023-01-20T19:56:15.814Z,99562.75
2023-01-20T19:58:43.431Z,99558.66
2023-01-20T20:01:13.589Z,99577.47
2023-01-20T20:03:40.322Z,99576.53
2023-01-20T20:06:17.732Z,99585.09
2023-01-20T20:08:46.641Z,99585.47
2023-01-20T20:11:13.128Z,99587.41
2023-01-20T20:13:39.554Z,99584.94
2023-01-20T20:16:06.483Z,99578.06
2023-01-20T20:18:33.259Z,99589.72
2023-01-20T20:20:59.774Z,99598.63
2023-01-20T20:23:26.709Z,99597.88
2023-01-20T20:25:57.426Z,99605.66
2023-01-20T20:28:28.346Z,99603.00
2023-01-20T20:30:58.259Z,99608.31
2023-01-20T20:33:24.909Z,99611.72
2023-01-20T20:35:51.537Z,99617.09
2023-01-20T20:38:17.922Z,99625.91
2023-01-20T20:40:44.567Z,99630.00
2023-01-20T20:43:10.985Z,99632.41
2023-01-20T20:45:37.614Z,99639.31
2023-01-20T20:48:04.660Z,99649.63
2023-01-20T20:50:31.502Z,99645.41
2023-01-20T20:52:58.941Z,99649.22
2023-01-20T20:55:28.237Z,99652.81
2023-01-20T20:57:54.710Z,99658.94
2023-01-20T21:00:23.532Z,99659.44
2023-01-20T21:02:50.297Z,99665.66
2023-01-20T21:05:18.858Z,99665.56
2023-01-20T21:07:45.822Z,99672.09
2023-01-20T21:10:15.668Z,99669.59
2023-01-20T21:12:44.258Z,99678.09
2023-01-20T21:15:11.694Z,99680.78
2023-01-20T21:17:38.799Z,99686.84
2023-01-20T21:20:06.952Z,99689.59
2023-01-20T21:22:34.256Z,99691.34
2023-01-20T21:25:00.838Z,99691.22
2023-01-20T21:27:27.384Z,99686.25
2023-01-20T21:29:54.153Z,99690.66
2023-01-20T21:32:20.746Z,99704.84
2023-01-20T21:34:47.346Z,99708.31
2023-01-20T21:37:13.898Z,99710.09
2023-01-20T21:39:40.414Z,99712.66
2023-01-20T21:42:07.525Z,99711.22
2023-01-20T21:44:36.482Z,99717.19
2023-01-20T21:47:05.480Z,99711.63
2023-01-20T21:49:51.181Z,99710.28
2023-01-20T21:52:38.976Z,99719.00
2023-01-20T21:55:06.922Z,99712.59
2023-01-20T21:57:33.501Z,99717.44
2023-01-20T22:00:00.980Z,99722.81
2023-01-20T22:02:28.695Z,99728.22
2023-01-20T22:04:55.852Z,99742.63
2023-01-20T22:07:24.499Z,99739.38
2023-01-20T22:09:51.030Z,99745.53
2023-01-20T22:12:17.706Z,99743.44
2023-01-20T22:14:44.209Z,99745.47
2023-01-20T22:17:11.851Z,99750.59
2023-01-20T22:19:39.080Z,99760.22
2023-01-20T22:22:06.225Z,99753.72
2023-01-20T22:24:33.057Z,99755.53
2023-01-20T22:26:59.848Z,99760.03
2023-01-20T22:29:26.315Z,99768.16
2023-01-20T22:31:54.452Z,99777.81
2023-01-20T22:34:21.531Z,99774.72
2023-01-20T22:36:48.251Z,99782.81
2023-01-20T22:39:15.264Z,99790.34
2023-01-20T22:41:41.860Z,99784.44
2023-01-20T22:44:08.496Z,99791.56
2023-01-20T22:46:35.041Z,99784.63
2023-01-20T22:49:01.568Z,99779.38
2023-01-20T22:51:29.742Z,99796.22
2023-01-20T22:53:57.875Z,99790.16
2023-01-20T22:56:27.313Z,99798.19
2023-01-20T22:58:55.791Z,99804.59
2023-01-20T23:01:33.447Z,99812.88
2023-01-20T23:04:02.689Z,99806.03
2023-01-20T23:06:32.454Z,99816.09
2023-01-20T23:09:00.977Z,99826.59
2023-01-20T23:11:27.594Z,99834.25
2023-01-20T23:13:54.105Z,99831.00
2023-01-20T23:16:22.561Z,99828.50
2023-01-20T23:18:50.712Z,99839.88
2023-01-20T23:21:17.822Z,99838.25
2023-01-20T23:23:44.795Z,99844.00
2023-01-20T23:26:17.748Z,99845.31
2023-01-20T23:28:45.309Z,99845.63
2023-01-20T23:31:14.870Z,99845.91
2023-01-20T23:33:43.990Z,99844.97
2023-01-20T23:36:20.103Z,99845.81
2023-01-20T23:38:46.574Z,99853.47
2023-01-20T23:41:14.454Z,99857.97
2023-01-20T23:43:41.629Z,99866.84
2023-01-20T23:46:09.404Z,99860.03
2023-01-20T23:48:36.704Z,99863.75
2023-01-20T23:51:03.975Z,99863.03
2023-01-20T23:53:32.197Z,99862.00
2023-01-20T23:56:03.986Z,99865.91
2023-01-20T23:58:30.979Z,99873.25
